Time;durP1;ratioP1;P1;durP2;ratioP2;P2;SDS_P1;SDS_P2;PMS_P1;PMS_P2;Temp;Humidity;BMP_temperature;BMP_pressure;BME280_temperature;BME280_humidity;BME280_pressure;Samples;Min_cycle;Max_cycle;Signal;HPM_P1;HPM_P2
2023/07/14 00:00:11;;;;;;;;;;;;;;;16.03;81.29;101712.31;4933836;29;19998;-77
2023/07/14 00:02:37;;;;;;;;;;;;;;;16.01;82.17;101711.47;4933773;29;19922;-77
2023/07/14 00:05:03;;;;;;;;;;;;;;;15.96;82.87;101708.06;4919442;29;20373;-78
2023/07/14 00:07:29;;;;;;;;;;;;;;;15.94;83.21;101712.56;4916448;29;19927;-78
2023/07/14 00:09:54;;;;;;;;;;;;;;;15.93;83.31;101707.31;4931737;29;20358;-77
2023/07/14 00:12:20;;;;;;;;;;;;;;;15.89;82.44;101698.47;4920616;29;19938;-78
2023/07/14 00:14:45;;;;;;;;;;;;;;;15.89;82.58;101707.38;4948094;29;19926;-77
2023/07/14 00:17:11;;;;;;;;;;;;;;;15.88;82.79;101702.97;4923458;29;19927;-78
2023/07/14 00:19:37;;;;;;;;;;;;;;;15.87;82.61;101700.31;4933480;29;20294;-77
2023/07/14 00:22:08;;;;;;;;;;;;;;;15.85;82.44;101699.50;4933591;29;19919;-77
2023/07/14 00:24:33;;;;;;;;;;;;;;;15.83;84.71;101696.03;4931976;29;19918;-77
2023/07/14 00:26:59;;;;;;;;;;;;;;;15.80;84.41;101693.41;4916320;29;19950;-77
2023/07/14 00:29:52;;;;;;;;;;;;;;;15.77;85.00;101701.53;4904952;29;19927;-77
2023/07/14 00:32:21;;;;;;;;;;;;;;;15.73;84.00;101684.72;4931393;29;20014;-77
2023/07/14 00:34:46;;;;;;;;;;;;;;;15.71;84.16;101691.91;4916020;29;20059;-77
2023/07/14 00:37:12;;;;;;;;;;;;;;;15.72;82.18;101698.97;4921801;29;20393;-77
2023/07/14 00:39:38;;;;;;;;;;;;;;;15.75;83.89;101692.69;4933389;29;19925;-77
2023/07/14 00:42:07;;;;;;;;;;;;;;;15.76;82.87;101686.44;4933323;29;19965;-77
2023/07/14 00:44:36;;;;;;;;;;;;;;;15.76;83.54;101683.75;4932064;29;19937;-77
2023/07/14 00:47:01;;;;;;;;;;;;;;;15.77;83.74;101690.84;4936246;29;19923;-77
2023/07/14 00:49:26;;;;;;;;;;;;;;;15.76;84.05;101686.44;4903936;29;20246;-77
2023/07/14 00:51:53;;;;;;;;;;;;;;;15.78;85.25;101685.47;4935859;29;19915;-77
2023/07/14 00:54:28;;;;;;;;;;;;;;;15.79;85.94;101681.00;4919948;29;20339;-77
2023/07/14 00:56:55;;;;;;;;;;;;;;;15.79;84.91;101679.19;4919915;29;20021;-77
2023/07/14 00:59:25;;;;;;;;;;;;;;;15.78;84.88;101677.47;4919613;29;19919;-77
2023/07/14 01:02:09;;;;;;;;;;;;;;;15.78;84.96;101679.25;4935311;29;19982;-77
2023/07/14 01:04:34;;;;;;;;;;;;;;;15.77;84.77;101680.16;4914302;29;19919;-77
2023/07/14 01:07:00;;;;;;;;;;;;;;;15.76;85.09;101679.28;4919690;29;20297;-77
2023/07/14 01:09:25;;;;;;;;;;;;;;;15.73;85.19;101682.06;4949349;29;19942;-78
2023/07/14 01:11:54;;;;;;;;;;;;;;;15.74;85.19;101683.78;4911356;29;20274;-77
2023/07/14 01:14:22;;;;;;;;;;;;;;;15.76;86.39;101675.75;4935228;29;19935;-77
2023/07/14 01:16:53;;;;;;;;;;;;;;;15.75;85.67;101674.88;4944296;29;20011;-77
2023/07/14 01:19:31;;;;;;;;;;;;;;;15.76;85.41;101679.28;4935163;29;19922;-77
2023/07/14 01:22:02;;;;;;;;;;;;;;;15.79;86.85;101679.19;4919357;29;19995;-76
2023/07/14 01:24:31;;;;;;;;;;;;;;;15.82;86.00;101667.53;4936176;29;19997;-77
2023/07/14 01:27:04;;;;;;;;;;;;;;;15.81;85.78;101661.34;4935006;29;20401;-77
2023/07/14 01:29:31;;;;;;;;;;;;;;;15.80;85.60;101664.03;4936322;29;19958;-77
2023/07/14 01:31:57;;;;;;;;;;;;;;;15.81;85.26;101656.00;4934997;29;19926;-77
2023/07/14 01:34:23;;;;;;;;;;;;;;;15.79;88.21;101656.97;4919006;29;20108;-77
2023/07/14 01:36:49;;;;;;;;;;;;;;;15.75;86.84;101669.53;4934858;29;20113;-74
2023/07/14 01:39:15;;;;;;;;;;;;;;;15.73;86.79;101660.69;4936367;29;19923;-74
2023/07/14 01:41:41;;;;;;;;;;;;;;;15.72;85.92;101656.25;4934706;29;19922;-74
2023/07/14 01:44:11;;;;;;;;;;;;;;;15.73;85.90;101651.81;4936172;29;19975;-74
2023/07/14 01:46:36;;;;;;;;;;;;;;;15.70;85.54;101652.75;4936372;29;19931;-74
2023/07/14 01:49:09;;;;;;;;;;;;;;;15.72;85.21;101656.25;4935969;29;19915;-74
2023/07/14 01:51:38;;;;;;;;;;;;;;;15.72;86.39;101650.91;4935940;29;19966;-74
2023/07/14 01:54:23;;;;;;;;;;;;;;;15.74;85.69;101654.44;4935953;29;19919;-74
2023/07/14 01:56:50;;;;;;;;;;;;;;;15.73;85.15;101643.81;4902752;29;19930;-74
2023/07/14 01:59:17;;;;;;;;;;;;;;;15.74;84.99;101648.22;4932270;29;20301;-74
2023/07/14 02:01:46;;;;;;;;;;;;;;;15.73;84.64;101643.81;4918662;29;20015;-74
2023/07/14 02:04:19;;;;;;;;;;;;;;;15.73;85.22;101647.34;4920494;29;19918;-74
2023/07/14 02:06:45;;;;;;;;;;;;;;;15.72;85.02;101650.06;4935610;29;19919;-73
2023/07/14 02:09:21;;;;;;;;;;;;;;;15.70;84.72;101647.41;4917374;29;19930;-74
2023/07/14 02:11:48;;;;;;;;;;;;;;;15.70;83.84;101636.72;4926869;29;19971;-74
2023/07/14 02:14:16;;;;;;;;;;;;;;;15.69;84.80;101643.88;4935482;29;19922;-74
2023/07/14 02:16:42;;;;;;;;;;;;;;;15.67;84.88;101643.00;4935241;29;20347;-74
2023/07/14 02:19:14;;;;;;;;;;;;;;;15.67;85.05;101643.00;4935521;29;19923;-74
2023/07/14 02:21:47;;;;;;;;;;;;;;;15.67;84.98;101637.66;4934206;29;19998;-74
2023/07/14 02:24:23;;;;;;;;;;;;;;;15.67;84.92;101636.81;4935201;29;20401;-74
2023/07/14 02:26:59;;;;;;;;;;;;;;;15.64;84.82;101642.25;4935369;29;19918;-74
2023/07/14 02:29:24;;;;;;;;;;;;;;;15.60;85.56;101638.81;4935207;29;19918;-74
2023/07/14 02:31:58;;;;;;;;;;;;;;;15.58;85.29;101637.97;4934230;29;19925;-74
2023/07/14 02:34:26;;;;;;;;;;;;;;;15.56;84.68;101642.47;4933933;29;19918;-74
2023/07/14 02:36:56;;;;;;;;;;;;;;;15.51;84.51;101639.06;4933720;29;20510;-74
2023/07/14 02:39:22;;;;;;;;;;;;;;;15.49;84.76;101639.09;4935104;29;19923;-74
2023/07/14 02:41:49;;;;;;;;;;;;;;;15.49;84.67;101638.25;4917890;29;19929;-74
2023/07/14 02:44:15;;;;;;;;;;;;;;;15.42;85.06;101639.34;4933897;29;19923;-74
2023/07/14 02:46:44;;;;;;;;;;;;;;;15.36;84.44;101631.53;4933695;29;19927;-74
2023/07/14 02:49:09;;;;;;;;;;;;;;;15.32;84.00;101638.72;4918100;29;19926;-74
2023/07/14 02:51:35;;;;;;;;;;;;;;;15.27;83.88;101635.31;4917596;29;19926;-73
2023/07/14 02:54:00;;;;;;;;;;;;;;;15.21;83.99;101636.38;4933379;29;19922;-74
2023/07/14 02:56:25;;;;;;;;;;;;;;;15.16;83.91;101635.63;4934809;29;19922;-74
2023/07/14 02:58:51;;;;;;;;;;;;;;;15.09;83.92;101633.19;4917430;29;20243;-74
2023/07/14 03:01:17;;;;;;;;;;;;;;;15.01;84.01;101633.41;4917520;29;19922;-74
2023/07/14 03:03:44;;;;;;;;;;;;;;;14.94;84.06;101632.69;4933404;29;19966;-74
2023/07/14 03:06:12;;;;;;;;;;;;;;;14.90;83.84;101636.34;4934647;29;20100;-74
2023/07/14 03:08:37;;;;;;;;;;;;;;;14.85;84.12;101635.59;4932306;29;19923;-73
2023/07/14 03:11:02;;;;;;;;;;;;;;;14.86;84.36;101636.47;4939244;29;19926;-73
2023/07/14 03:13:28;;;;;;;;;;;;;;;14.84;84.38;101632.06;4936460;29;19922;-74
2023/07/14 03:15:54;;;;;;;;;;;;;;;14.84;84.53;101632.06;4952287;29;20322;-73
2023/07/14 03:18:20;;;;;;;;;;;;;;;14.83;84.90;101632.97;4952320;29;19923;-73
2023/07/14 03:20:46;;;;;;;;;;;;;;;14.82;85.37;101633.88;4952289;29;19989;-74
2023/07/14 03:23:12;;;;;;;;;;;;;;;14.82;86.05;101625.03;4953772;29;19918;-73
2023/07/14 03:25:37;;;;;;;;;;;;;;;14.81;87.04;101625.91;4952070;29;19918;-73
2023/07/14 03:28:03;;;;;;;;;;;;;;;14.79;85.62;101625.97;4952176;29;19966;-73
2023/07/14 03:30:29;;;;;;;;;;;;;;;14.81;86.52;101617.91;4936130;29;19945;-74
2023/07/14 03:32:54;;;;;;;;;;;;;;;14.81;86.22;101623.25;4920265;29;19918;-73
2023/07/14 03:35:20;;;;;;;;;;;;;;;14.81;86.31;101616.16;4953469;29;20422;-74
2023/07/14 03:37:46;;;;;;;;;;;;;;;14.80;87.28;101608.19;4951832;29;19974;-73
2023/07/14 03:40:11;;;;;;;;;;;;;;;14.79;87.05;101609.97;4953332;29;19933;-74
2023/07/14 03:42:38;;;;;;;;;;;;;;;14.82;86.45;101607.22;4952131;29;19918;-74
2023/07/14 03:45:03;;;;;;;;;;;;;;;14.84;86.44;101609.84;4967778;28;19926;-74
2023/07/14 03:47:29;;;;;;;;;;;;;;;14.84;87.07;101602.72;4960109;28;19925;-73
2023/07/14 03:49:54;;;;;;;;;;;;;;;14.84;86.43;101608.06;4906407;29;19973;-74
2023/07/14 03:52:19;;;;;;;;;;;;;;;14.84;86.24;101604.53;4953305;29;19938;-74
2023/07/14 03:54:45;;;;;;;;;;;;;;;14.83;85.88;101598.28;4951687;29;20353;-73
2023/07/14 03:57:10;;;;;;;;;;;;;;;14.83;85.28;101603.63;4941137;29;19923;-76
2023/07/14 03:59:36;;;;;;;;;;;;;;;14.83;86.39;101600.97;4967867;28;20277;-77
2023/07/14 04:02:01;;;;;;;;;;;;;;;14.83;86.20;101595.63;4935674;29;19922;-77
2023/07/14 04:04:28;;;;;;;;;;;;;;;14.84;85.20;101600.06;4952803;29;20250;-77
2023/07/14 04:06:53;;;;;;;;;;;;;;;14.83;85.76;101603.63;4935551;29;20029;-77
2023/07/14 04:09:19;;;;;;;;;;;;;;;14.83;85.49;101598.28;4933573;29;19953;-77
2023/07/14 04:11:44;;;;;;;;;;;;;;;14.83;85.67;101603.63;4903779;29;19933;-77
2023/07/14 04:14:10;;;;;;;;;;;;;;;14.81;86.08;101602.81;4919662;29;20403;-77
2023/07/14 04:16:35;;;;;;;;;;;;;;;14.80;85.72;101601.03;4951393;28;19918;-76
2023/07/14 04:19:01;;;;;;;;;;;;;;;14.80;85.78;101609.06;4951441;29;20092;-76
2023/07/14 04:21:27;;;;;;;;;;;;;;;14.79;86.11;101601.97;4939544;29;19922;-77
2023/07/14 04:23:53;;;;;;;;;;;;;;;14.78;86.30;101594.00;4941814;29;19987;-77
2023/07/14 04:26:19;;;;;;;;;;;;;;;14.77;85.61;101589.59;4959117;28;20059;-77
2023/07/14 04:28:44;;;;;;;;;;;;;;;14.78;85.97;101597.53;4959191;29;20042;-77
2023/07/14 04:31:09;;;;;;;;;;;;;;;14.79;86.02;101593.97;4957532;28;19922;-77
2023/07/14 04:33:35;;;;;;;;;;;;;;;14.80;85.96;101589.50;4957939;29;20245;-77
2023/07/14 04:36:00;;;;;;;;;;;;;;;14.81;86.30;101589.47;4958783;29;19926;-77
2023/07/14 04:38:26;;;;;;;;;;;;;;;14.84;86.31;101594.72;4959189;28;19929;-76
2023/07/14 04:40:52;;;;;;;;;;;;;;;14.84;85.90;101594.72;4958951;28;20262;-76
2023/07/14 04:43:18;;;;;;;;;;;;;;;14.87;86.87;101593.75;4941598;29;19918;-76
2023/07/14 04:45:44;;;;;;;;;;;;;;;14.89;86.39;101593.72;4957638;29;19918;-77
2023/07/14 04:48:12;;;;;;;;;;;;;;;14.91;86.40;101590.09;4958980;28;19922;-77
2023/07/14 04:50:37;;;;;;;;;;;;;;;14.94;86.25;101598.00;4958737;28;19977;-76
2023/07/14 04:53:05;;;;;;;;;;;;;;;15.00;87.50;101596.97;4957652;28;19923;-77
2023/07/14 04:55:41;;;;;;;;;;;;;;;15.04;88.34;101598.63;4925599;29;19968;-76
2023/07/14 04:58:07;;;;;;;;;;;;;;;15.04;87.40;101596.84;4958874;28;20320;-76
2023/07/14 05:00:34;;;;;;;;;;;;;;;15.06;87.07;101594.13;4958955;29;20341;-76
2023/07/14 05:02:59;;;;;;;;;;;;;;;15.08;86.70;101588.72;4941645;29;19918;-78
2023/07/14 05:05:25;;;;;;;;;;;;;;;15.11;86.74;101599.31;4958410;29;20263;-78
2023/07/14 05:07:52;;;;;;;;;;;;;;;15.14;86.84;101596.59;4973463;28;19923;-79
2023/07/14 05:10:18;;;;;;;;;;;;;;;15.14;87.73;101593.91;4956122;28;19926;-79
2023/07/14 05:12:43;;;;;;;;;;;;;;;15.16;86.99;101600.94;4958797;28;19930;-77
2023/07/14 05:15:10;;;;;;;;;;;;;;;15.19;88.59;101594.66;4958757;29;20100;-77
2023/07/14 05:17:41;;;;;;;;;;;;;;;15.17;87.37;101589.34;4958725;28;19945;-77
2023/07/14 05:20:07;;;;;;;;;;;;;;;15.20;88.27;101593.72;4957423;29;20008;-77
2023/07/14 05:22:32;;;;;;;;;;;;;;;15.22;85.97;101589.22;4941449;29;19962;-77
2023/07/14 05:24:58;;;;;;;;;;;;;;;15.25;84.01;101591.78;4958779;29;19925;-76
2023/07/14 05:27:23;;;;;;;;;;;;;;;15.26;87.17;101580.22;4957406;29;19923;-76
2023/07/14 05:29:49;;;;;;;;;;;;;;;15.30;83.75;101591.66;4958769;28;19926;-76
2023/07/14 05:32:16;;;;;;;;;;;;;;;15.33;84.68;101592.47;4956412;28;19918;-77
2023/07/14 05:34:41;;;;;;;;;;;;;;;15.35;86.30;101585.25;4955574;29;19926;-77
2023/07/14 05:37:06;;;;;;;;;;;;;;;15.38;86.51;101589.63;4955534;29;19937;-77
2023/07/14 05:39:32;;;;;;;;;;;;;;;15.39;86.76;101599.41;4937912;29;20021;-77
2023/07/14 05:41:58;;;;;;;;;;;;;;;15.40;85.23;101591.31;4955207;29;19961;-77
2023/07/14 05:44:24;;;;;;;;;;;;;;;15.46;85.66;101587.63;4953887;29;19946;-77
2023/07/14 05:46:50;;;;;;;;;;;;;;;15.51;85.08;101585.69;4953811;29;19962;-77
2023/07/14 05:49:16;;;;;;;;;;;;;;;15.56;87.31;101581.06;4955360;29;19957;-77
2023/07/14 05:51:41;;;;;;;;;;;;;;;15.67;87.07;101578.06;4955105;29;19922;-77
2023/07/14 05:54:07;;;;;;;;;;;;;;;15.72;88.06;101581.50;4955175;29;19923;-77
2023/07/14 05:56:33;;;;;;;;;;;;;;;15.74;87.27;101579.66;4954908;29;20266;-77
2023/07/14 05:58:59;;;;;;;;;;;;;;;15.73;86.88;101582.41;4955315;29;19985;-77
2023/07/14 06:01:24;;;;;;;;;;;;;;;15.71;87.69;101577.09;4954956;29;19998;-77
2023/07/14 06:03:49;;;;;;;;;;;;;;;15.74;86.58;101579.66;4949426;29;20060;-78
2023/07/14 06:06:15;;;;;;;;;;;;;;;15.79;86.32;101580.38;4947295;29;19969;-77
2023/07/14 06:08:42;;;;;;;;;;;;;;;15.85;86.18;101580.19;4952620;28;19934;-77
2023/07/14 06:11:07;;;;;;;;;;;;;;;15.88;85.67;101577.41;4935917;29;19946;-77
2023/07/14 06:13:33;;;;;;;;;;;;;;;15.90;85.21;101582.72;4935338;29;20361;-77
2023/07/14 06:15:59;;;;;;;;;;;;;;;15.89;85.44;101579.16;4934859;29;19966;-77
2023/07/14 06:18:24;;;;;;;;;;;;;;;15.93;85.01;101582.63;4935436;29;20365;-78
2023/07/14 06:20:50;;;;;;;;;;;;;;;15.92;84.83;101583.53;4933610;29;19930;-78
2023/07/14 06:23:16;;;;;;;;;;;;;;;15.91;85.60;101579.13;4933960;29;19941;-78
2023/07/14 06:25:43;;;;;;;;;;;;;;;15.87;85.19;101570.34;4934897;29;19922;-78
2023/07/14 06:28:09;;;;;;;;;;;;;;;15.88;84.85;101569.41;4908190;29;20331;-79
2023/07/14 06:30:35;;;;;;;;;;;;;;;15.94;85.13;101575.47;4930578;29;20030;-78
2023/07/14 06:33:01;;;;;;;;;;;;;;;15.98;84.82;101575.34;4927266;29;19919;-78
2023/07/14 06:35:26;;;;;;;;;;;;;;;16.05;84.90;101568.88;4923436;29;19935;-78
2023/07/14 06:37:51;;;;;;;;;;;;;;;16.08;84.73;101578.56;4922799;29;20430;-78
2023/07/14 06:40:17;;;;;;;;;;;;;;;16.11;84.53;101575.78;4920649;29;19933;-78
2023/07/14 06:42:42;;;;;;;;;;;;;;;16.15;85.02;101574.78;4918582;29;19929;-78
2023/07/14 06:45:08;;;;;;;;;;;;;;;16.18;84.25;101572.00;4900756;29;19923;-74
2023/07/14 06:47:34;;;;;;;;;;;;;;;16.25;84.77;101572.69;4915996;29;19919;-74
2023/07/14 06:49:59;;;;;;;;;;;;;;;16.34;83.14;101575.91;4930780;29;20350;-74
2023/07/14 06:52:24;;;;;;;;;;;;;;;16.47;82.86;101572.81;4917486;29;19987;-74
2023/07/14 06:54:51;;;;;;;;;;;;;;;16.54;82.99;101568.97;4905533;29;19930;-74
2023/07/14 06:57:16;;;;;;;;;;;;;;;16.61;83.18;101566.97;4903793;29;19927;-74
2023/07/14 06:59:42;;;;;;;;;;;;;;;16.63;81.59;101567.78;4917281;29;19923;-74
2023/07/14 07:02:12;;;;;;;;;;;;;;;16.64;81.94;101566.84;4918694;29;19960;-74
2023/07/14 07:04:37;;;;;;;;;;;;;;;16.68;82.29;101571.16;4915613;29;19923;-74
2023/07/14 07:07:04;;;;;;;;;;;;;;;16.82;81.70;101563.56;4931977;29;19921;-74
2023/07/14 07:09:29;;;;;;;;;;;;;;;16.99;81.31;101562.94;4914330;29;19953;-74
2023/07/14 07:11:55;;;;;;;;;;;;;;;17.07;80.77;101557.31;4946265;29;19995;-76
2023/07/14 07:14:20;;;;;;;;;;;;;;;17.17;81.05;101551.53;4946116;29;20377;-77
2023/07/14 07:16:46;;;;;;;;;;;;;;;17.26;80.54;101550.31;4929114;29;19926;-77
2023/07/14 07:19:11;;;;;;;;;;;;;;;17.33;80.59;101549.16;4930442;29;19935;-74
2023/07/14 07:21:36;;;;;;;;;;;;;;;17.40;80.19;101550.63;4930645;29;19926;-73
2023/07/14 07:24:06;;;;;;;;;;;;;;;17.47;79.12;101548.59;4931743;29;19914;-74
2023/07/14 07:26:31;;;;;;;;;;;;;;;17.48;78.01;101538.75;4930663;29;19926;-74
2023/07/14 07:28:56;;;;;;;;;;;;;;;17.45;77.75;101545.09;4929318;29;19927;-74
2023/07/14 07:31:22;;;;;;;;;;;;;;;17.43;77.49;101546.97;4928772;29;20362;-73
2023/07/14 07:33:47;;;;;;;;;;;;;;;17.52;78.42;101541.25;4927367;29;19918;-73
2023/07/14 07:36:16;;;;;;;;;;;;;;;17.70;77.88;101539.63;4911687;29;20016;-73
2023/07/14 07:38:42;;;;;;;;;;;;;;;17.81;76.42;101547.28;4929304;29;19923;-73
2023/07/14 07:41:08;;;;;;;;;;;;;;;17.83;76.72;101540.94;4928341;29;20278;-73
2023/07/14 07:43:33;;;;;;;;;;;;;;;17.99;76.37;101537.63;4912224;29;19919;-73
2023/07/14 07:45:58;;;;;;;;;;;;;;;18.17;74.70;101539.50;4911032;29;20252;-72
2023/07/14 07:48:24;;;;;;;;;;;;;;;18.34;75.27;101529.88;4928847;29;19951;-73
2023/07/14 07:50:49;;;;;;;;;;;;;;;18.48;72.68;101531.03;4933740;29;19970;-73
2023/07/14 07:53:14;;;;;;;;;;;;;;;18.47;72.82;101523.94;4928443;29;19925;-73
2023/07/14 07:55:40;;;;;;;;;;;;;;;18.48;73.79;101533.69;4926889;29;19919;-73
2023/07/14 07:58:05;;;;;;;;;;;;;;;18.56;73.57;101522.63;4911336;29;19978;-73
2023/07/14 08:00:30;;;;;;;;;;;;;;;18.65;73.04;101524.91;4896762;29;19927;-73
2023/07/14 08:02:56;;;;;;;;;;;;;;;18.74;73.39;101523.63;4927218;29;20389;-73
2023/07/14 08:05:21;;;;;;;;;;;;;;;18.84;73.24;101522.31;4910780;29;19954;-73
2023/07/14 08:07:46;;;;;;;;;;;;;;;18.88;70.60;101515.84;4896497;29;20377;-73
2023/07/14 08:10:12;;;;;;;;;;;;;;;18.81;70.05;101510.84;4894445;29;20010;-73
2023/07/14 08:12:37;;;;;;;;;;;;;;;18.85;72.27;101512.44;4912024;29;19934;-73
2023/07/14 08:15:03;;;;;;;;;;;;;;;18.97;72.03;101509.19;4912244;29;19927;-76
2023/07/14 08:17:31;;;;;;;;;;;;;;;19.09;71.91;101511.31;4946497;29;19989;-76
2023/07/14 08:19:57;;;;;;;;;;;;;;;19.23;71.68;101513.31;4946352;29;20576;-73
2023/07/14 08:22:23;;;;;;;;;;;;;;;19.38;70.31;101516.22;4945091;29;19941;-73
2023/07/14 08:24:48;;;;;;;;;;;;;;;19.48;69.93;101515.72;4946562;29;19973;-73
2023/07/14 08:27:16;;;;;;;;;;;;;;;19.58;70.58;101515.25;4913141;29;20374;-73
2023/07/14 08:29:42;;;;;;;;;;;;;;;19.60;69.73;101516.06;4943913;29;19926;-73
2023/07/14 08:32:08;;;;;;;;;;;;;;;19.62;65.47;101517.72;4945917;29;20016;-71
2023/07/14 08:34:33;;;;;;;;;;;;;;;19.51;64.85;101520.06;4943920;29;19948;-71
2023/07/14 08:36:59;;;;;;;;;;;;;;;19.38;66.25;101510.88;4945820;29;19927;-71
2023/07/14 08:39:24;;;;;;;;;;;;;;;19.31;66.73;101518.31;4940928;28;19993;-71
2023/07/14 08:41:52;;;;;;;;;;;;;;;19.28;67.65;101515.78;4928655;29;20005;-71
2023/07/14 08:44:17;;;;;;;;;;;;;;;19.23;66.42;101518.69;4929061;29;19937;-71
2023/07/14 08:47:06;;;;;;;;;;;;;;;19.24;67.12;101519.59;4945354;29;19918;-71
2023/07/14 08:49:38;;;;;;;;;;;;;;;19.26;66.68;101523.06;4927229;29;20005;-72
2023/07/14 08:52:08;;;;;;;;;;;;;;;19.40;67.18;101514.34;4944906;29;19923;-73
2023/07/14 08:54:57;;;;;;;;;;;;;;;19.56;66.23;101510.00;4943766;29;19924;-72
2023/07/14 08:57:23;;;;;;;;;;;;;;;19.69;66.25;101508.47;4937294;28;19922;-72
2023/07/14 08:59:51;;;;;;;;;;;;;;;19.85;65.16;101500.50;4948117;29;19918;-73
2023/07/14 09:02:31;;;;;;;;;;;;;;;20.12;64.14;101500.03;4944598;29;19965;-78
2023/07/14 09:05:19;;;;;;;;;;;;;;;20.38;62.52;101502.25;4924107;29;20017;-80
2023/07/14 09:07:45;;;;;;;;;;;;;;;20.59;63.12;101496.72;4929352;29;19940;-78
2023/07/14 09:10:12;;;;;;;;;;;;;;;20.73;63.75;101496.84;4945213;29;20322;-77
2023/07/14 09:12:51;;;;;;;;;;;;;;;20.83;62.40;101489.16;4945730;29;20013;-77
2023/07/14 09:15:19;;;;;;;;;;;;;;;20.80;58.97;101484.81;4931773;29;20285;-77
2023/07/14 09:17:49;;;;;;;;;;;;;;;20.79;60.46;101483.03;4926691;29;19923;-77
2023/07/14 09:20:23;;;;;;;;;;;;;;;20.93;61.35;101482.31;4916544;29;19977;-78
2023/07/14 09:23:01;;;;;;;;;;;;;;;21.01;58.99;101481.88;4935406;29;19930;-78
2023/07/14 09:25:38;;;;;;;;;;;;;;;21.14;59.01;101488.34;4930402;29;19981;-77
2023/07/14 09:28:09;;;;;;;;;;;;;;;21.35;56.59;101477.28;4928025;29;20329;-77
2023/07/14 09:30:34;;;;;;;;;;;;;;;21.46;58.14;101486.53;4926487;29;19966;-79
2023/07/14 09:33:02;;;;;;;;;;;;;;;21.61;54.62;101481.19;4932337;29;19922;-80
2023/07/14 09:35:28;;;;;;;;;;;;;;;21.74;55.77;101479.53;4946933;29;20448;-78
2023/07/14 09:38:14;;;;;;;;;;;;;;;21.82;57.70;101473.69;4935211;28;20362;-79
2023/07/14 09:40:41;;;;;;;;;;;;;;;21.86;55.92;101465.34;4946882;29;20021;-79
2023/07/14 09:43:07;;;;;;;;;;;;;;;21.88;57.79;101467.94;4944403;29;19989;-79
2023/07/14 09:45:37;;;;;;;;;;;;;;;21.82;57.86;101469.16;4932165;29;20389;-78
2023/07/14 09:48:10;;;;;;;;;;;;;;;21.80;58.29;101463.00;4940524;29;19919;-79
2023/07/14 09:50:37;;;;;;;;;;;;;;;21.87;56.56;101460.81;4938426;29;19930;-80
2023/07/14 09:53:05;;;;;;;;;;;;;;;22.01;56.86;101462.69;4930622;29;20021;-79
2023/07/14 09:55:42;;;;;;;;;;;;;;;22.12;56.95;101452.97;4913116;29;20070;-79
2023/07/14 09:58:12;;;;;;;;;;;;;;;22.24;54.81;101450.53;4930955;29;19946;-80
2023/07/14 10:00:39;;;;;;;;;;;;;;;22.37;55.27;101446.09;4938609;29;20258;-79
2023/07/14 10:03:15;;;;;;;;;;;;;;;22.39;56.83;101446.88;4928865;29;19926;-79
2023/07/14 10:05:47;;;;;;;;;;;;;;;22.62;55.83;101431.09;4945978;29;19918;-82
2023/07/14 10:08:33;;;;;;;;;;;;;;;22.78;53.66;101433.69;4929843;29;20386;-80
2023/07/14 10:11:17;;;;;;;;;;;;;;;22.75;53.46;101435.63;4937654;29;19934;-82
2023/07/14 10:13:50;;;;;;;;;;;;;;;22.73;54.12;101425.88;4928637;29;20351;-82
2023/07/14 10:16:16;;;;;;;;;;;;;;;22.66;55.47;101422.69;4926589;29;20432;-81
2023/07/14 10:18:49;;;;;;;;;;;;;;;22.65;54.79;101425.47;4928196;29;19923;-81
2023/07/14 10:21:16;;;;;;;;;;;;;;;22.62;53.80;101418.44;4926717;29;20005;-78
2023/07/14 10:23:55;;;;;;;;;;;;;;;22.56;54.00;101415.28;4911495;29;20406;-79
2023/07/14 10:26:22;;;;;;;;;;;;;;;22.46;55.68;101412.31;4926414;29;19919;-77
2023/07/14 10:28:50;;;;;;;;;;;;;;;22.38;55.97;101403.78;4927385;29;20358;-79
2023/07/14 10:31:16;;;;;;;;;;;;;;;22.44;55.70;101401.59;4912237;29;19919;-81
2023/07/14 10:33:47;;;;;;;;;;;;;;;22.57;56.90;101398.13;4927403;29;20313;-80
2023/07/14 10:36:15;;;;;;;;;;;;;;;22.76;55.37;101395.97;4928903;29;19927;-81
2023/07/14 10:38:51;;;;;;;;;;;;;;;22.87;54.99;101387.19;4928654;29;20371;-81
2023/07/14 10:41:18;;;;;;;;;;;;;;;22.91;53.65;101384.19;4911169;29;20143;-80
2023/07/14 10:43:47;;;;;;;;;;;;;;;22.83;53.04;101374.84;4928812;29;19942;-82
2023/07/14 10:46:17;;;;;;;;;;;;;;;22.74;52.90;101376.31;4911901;29;19926;-80
2023/07/14 10:48:48;;;;;;;;;;;;;;;22.67;54.25;101383.06;4932064;29;19923;-81
2023/07/14 10:51:32;;;;;;;;;;;;;;;22.51;52.68;101373.25;4939259;29;20008;-81
2023/07/14 10:54:06;;;;;;;;;;;;;;;22.42;54.77;101376.53;4911490;29;20017;-81
2023/07/14 10:56:54;;;;;;;;;;;;;;;22.41;54.71;101376.63;4911312;29;19950;-80
2023/07/14 10:59:26;;;;;;;;;;;;;;;22.35;55.00;101377.88;4892691;29;19927;-80
2023/07/14 11:02:11;;;;;;;;;;;;;;;22.23;53.86;101370.53;4928658;29;19970;-80
2023/07/14 11:05:06;;;;;;;;;;;;;;;22.10;55.14;101376.66;4928949;29;19918;-80
2023/07/14 11:07:33;;;;;;;;;;;;;;;22.13;55.86;101372.91;4898362;29;19927;-80
2023/07/14 11:09:59;;;;;;;;;;;;;;;22.19;55.17;101374.38;4935876;29;20040;-80
2023/07/14 11:12:24;;;;;;;;;;;;;;;22.34;55.82;101365.34;4944570;29;19934;-81
2023/07/14 11:15:08;;;;;;;;;;;;;;;22.64;54.68;101357.13;4946784;29;19949;-80
2023/07/14 11:17:52;;;;;;;;;;;;;;;22.85;53.21;101338.69;4946863;29;19979;-80
2023/07/14 11:20:21;;;;;;;;;;;;;;;23.03;55.08;101349.28;4945663;29;19982;-79
2023/07/14 11:23:01;;;;;;;;;;;;;;;23.28;52.54;101343.97;4930496;29;19926;-80
2023/07/14 11:25:44;;;;;;;;;;;;;;;23.26;52.73;101337.78;4945631;29;20441;-80
2023/07/14 11:28:28;;;;;;;;;;;;;;;23.26;53.94;101296.41;4947876;29;19923;-80
2023/07/14 11:30:56;;;;;;;;;;;;;;;23.40;56.00;101299.03;4957967;28;20073;-80
2023/07/14 11:33:29;;;;;;;;;;;;;;;23.60;55.56;101295.81;4940946;29;21299;-79
2023/07/14 11:35:57;;;;;;;;;;;;;;;23.74;54.90;101294.03;4928471;29;19926;-79
2023/07/14 11:38:35;;;;;;;;;;;;;;;23.79;54.15;101291.88;4947189;29;19923;-74
2023/07/14 11:41:01;;;;;;;;;;;;;;;23.86;52.02;101294.97;4942786;29;19933;-75
2023/07/14 11:43:29;;;;;;;;;;;;;;;23.91;51.72;101295.50;4941358;29;20442;-75
2023/07/14 11:46:05;;;;;;;;;;;;;;;24.06;52.47;101297.16;4942204;29;20051;-74
2023/07/14 11:48:36;;;;;;;;;;;;;;;24.40;49.71;101284.72;4943824;29;19919;-75
2023/07/14 11:51:02;;;;;;;;;;;;;;;24.48;47.33;101284.22;4937324;29;19973;-74
2023/07/14 11:53:31;;;;;;;;;;;;;;;24.44;50.81;101278.13;4945772;29;19926;-75
2023/07/14 11:56:11;;;;;;;;;;;;;;;24.67;52.12;101276.44;4941286;29;19994;-75
2023/07/14 11:58:36;;;;;;;;;;;;;;;25.04;49.76;101272.81;4946492;29;19961;-75
2023/07/14 12:01:06;;;;;;;;;;;;;;;25.29;47.88;101269.13;4928851;29;20073;-74
2023/07/14 12:03:46;;;;;;;;;;;;;;;25.40;50.42;101266.47;4913112;29;19923;-75
2023/07/14 12:06:17;;;;;;;;;;;;;;;25.63;50.56;101264.66;4944790;29;20017;-75
2023/07/14 12:08:43;;;;;;;;;;;;;;;25.64;44.38;101262.78;4940531;28;19927;-75
2023/07/14 12:11:25;;;;;;;;;;;;;;;25.48;48.76;101261.28;4946261;29;19934;-75
2023/07/14 12:13:51;;;;;;;;;;;;;;;25.65;48.90;101243.69;4946519;29;20025;-75
2023/07/14 12:16:22;;;;;;;;;;;;;;;25.81;48.25;101250.63;4928343;29;20009;-76
2023/07/14 12:19:14;;;;;;;;;;;;;;;25.92;48.97;101240.66;4958546;28;19922;-75
2023/07/14 12:21:54;;;;;;;;;;;;;;;25.81;46.99;101245.19;4916461;29;20069;-76
2023/07/14 12:24:22;;;;;;;;;;;;;;;25.65;46.62;101237.41;4942446;29;19926;-76
2023/07/14 12:26:52;;;;;;;;;;;;;;;25.65;48.40;101238.28;4921093;29;19934;-75
2023/07/14 12:29:18;;;;;;;;;;;;;;;25.75;48.23;101228.41;4955432;28;19923;-77
2023/07/14 12:31:51;;;;;;;;;;;;;;;26.02;49.04;101226.38;4945083;29;19922;-76
2023/07/14 12:34:18;;;;;;;;;;;;;;;26.21;48.38;101226.59;4947049;29;19970;-76
2023/07/14 12:36:43;;;;;;;;;;;;;;;26.31;48.78;101218.53;4946746;29;19934;-77
2023/07/14 12:39:09;;;;;;;;;;;;;;;26.76;49.31;101207.59;4929137;29;19986;-77
2023/07/14 12:41:37;;;;;;;;;;;;;;;27.23;48.95;101210.84;4930262;29;19922;-77